sensor_id;sensor_type;location;lat;lon;timestamp;temperature;humidity
26063;DHT22;13837;48.562;12.108;2022-11-15T00:00:40;1.60;99.90
26063;DHT22;13837;48.562;12.108;2022-11-15T00:03:30;1.70;99.90
26063;DHT22;13837;48.562;12.108;2022-11-15T00:06:17;1.80;99.90
26063;DHT22;13837;48.562;12.108;2022-11-15T00:09:02;1.80;99.90
26063;DHT22;13837;48.562;12.108;2022-11-15T00:11:49;1.80;99.90
26063;DHT22;13837;48.562;12.108;2022-11-15T00:14:43;1.70;99.90
26063;DHT22;13837;48.562;12.108;2022-11-15T00:17:28;1.70;99.90
26063;DHT22;13837;48.562;12.108;2022-11-15T00:20:14;1.60;99.90
26063;DHT22;13837;48.562;12.108;2022-11-15T00:22:59;1.60;99.90
26063;DHT22;13837;48.562;12.108;2022-11-15T00:25:44;1.60;99.90
26063;DHT22;13837;48.562;12.108;2022-11-15T00:28:31;1.60;99.90
26063;DHT22;13837;48.562;12.108;2022-11-15T00:31:18;1.50;99.90
26063;DHT22;13837;48.562;12.108;2022-11-15T00:34:03;1.40;99.90
26063;DHT22;13837;48.562;12.108;2022-11-15T00:36:48;1.50;99.90
26063;DHT22;13837;48.562;12.108;2022-11-15T00:39:32;1.40;99.90
26063;DHT22;13837;48.562;12.108;2022-11-15T00:42:17;1.40;99.90
26063;DHT22;13837;48.562;12.108;2022-11-15T00:45:02;1.40;99.90
26063;DHT22;13837;48.562;12.108;2022-11-15T00:47:48;1.30;99.90
26063;DHT22;13837;48.562;12.108;2022-11-15T00:50:33;1.30;99.90
26063;DHT22;13837;48.562;12.108;2022-11-15T00:53:17;1.40;99.90
26063;DHT22;13837;48.562;12.108;2022-11-15T00:56:02;1.40;99.90
26063;DHT22;13837;48.562;12.108;2022-11-15T00:58:49;1.40;99.90
26063;DHT22;13837;48.562;12.108;2022-11-15T01:01:34;1.30;99.90
26063;DHT22;13837;48.562;12.108;2022-11-15T01:04:22;1.30;99.90
26063;DHT22;13837;48.562;12.108;2022-11-15T01:07:06;1.30;99.90
26063;DHT22;13837;48.562;12.108;2022-11-15T01:09:51;1.30;99.90
26063;DHT22;13837;48.562;12.108;2022-11-15T01:12:39;1.20;99.90
26063;DHT22;13837;48.562;12.108;2022-11-15T01:15:23;1.20;99.90
26063;DHT22;13837;48.562;12.108;2022-11-15T01:18:11;1.20;99.90
26063;DHT22;13837;48.562;12.108;2022-11-15T01:20:56;1.10;99.90
26063;DHT22;13837;48.562;12.108;2022-11-15T01:23:41;1.10;99.90
26063;DHT22;13837;48.562;12.108;2022-11-15T01:26:29;1.10;99.90
26063;DHT22;13837;48.562;12.108;2022-11-15T01:29:13;1.10;99.90
26063;DHT22;13837;48.562;12.108;2022-11-15T01:31:58;1.00;99.90
26063;DHT22;13837;48.562;12.108;2022-11-15T01:34:42;1.00;99.90
26063;DHT22;13837;48.562;12.108;2022-11-15T01:37:27;1.00;99.90
26063;DHT22;13837;48.562;12.108;2022-11-15T01:40:14;1.00;99.90
26063;DHT22;13837;48.562;12.108;2022-11-15T01:43:17;1.00;99.90
26063;DHT22;13837;48.562;12.108;2022-11-15T01:46:10;0.90;99.90
26063;DHT22;13837;48.562;12.108;2022-11-15T01:49:09;1.00;99.90
26063;DHT22;13837;48.562;12.108;2022-11-15T01:52:04;1.10;99.90
26063;DHT22;13837;48.562;12.108;2022-11-15T01:54:53;1.10;99.90
26063;DHT22;13837;48.562;12.108;2022-11-15T01:57:43;1.10;99.90
26063;DHT22;13837;48.562;12.108;2022-11-15T02:00:30;1.10;99.90
26063;DHT22;13837;48.562;12.108;2022-11-15T02:03:15;1.10;99.90
26063;DHT22;13837;48.562;12.108;2022-11-15T02:06:00;1.00;99.90
26063;DHT22;13837;48.562;12.108;2022-11-15T02:08:46;1.00;99.90
26063;DHT22;13837;48.562;12.108;2022-11-15T02:11:31;1.10;99.90
26063;DHT22;13837;48.562;12.108;2022-11-15T02:14:20;1.00;99.90
26063;DHT22;13837;48.562;12.108;2022-11-15T02:23:04;1.10;99.90
26063;DHT22;13837;48.562;12.108;2022-11-15T02:29:20;1.20;99.90
26063;DHT22;13837;48.562;12.108;2022-11-15T02:32:32;1.20;99.90
26063;DHT22;13837;48.562;12.108;2022-11-15T02:35:43;1.10;99.90
26063;DHT22;13837;48.562;12.108;2022-11-15T02:38:52;1.10;99.90
26063;DHT22;13837;48.562;12.108;2022-11-15T02:42:07;1.10;99.90
26063;DHT22;13837;48.562;12.108;2022-11-15T02:45:26;1.00;99.90
26063;DHT22;13837;48.562;12.108;2022-11-15T02:48:12;1.00;99.90
26063;DHT22;13837;48.562;12.108;2022-11-15T02:50:58;1.00;99.90
26063;DHT22;13837;48.562;12.108;2022-11-15T02:53:43;0.90;99.90
26063;DHT22;13837;48.562;12.108;2022-11-15T02:56:28;0.90;99.90
26063;DHT22;13837;48.562;12.108;2022-11-15T03:05:35;0.70;99.90
26063;DHT22;13837;48.562;12.108;2022-11-15T03:08:29;0.70;99.90
26063;DHT22;13837;48.562;12.108;2022-11-15T03:11:20;0.70;99.90
26063;DHT22;13837;48.562;12.108;2022-11-15T03:14:24;0.70;99.90
26063;DHT22;13837;48.562;12.108;2022-11-15T03:17:20;0.70;99.90
26063;DHT22;13837;48.562;12.108;2022-11-15T03:20:07;0.60;99.90
26063;DHT22;13837;48.562;12.108;2022-11-15T03:22:55;0.60;99.90
26063;DHT22;13837;48.562;12.108;2022-11-15T03:25:45;0.60;99.90
26063;DHT22;13837;48.562;12.108;2022-11-15T03:28:36;0.60;99.90
26063;DHT22;13837;48.562;12.108;2022-11-15T03:31:21;0.60;99.90
26063;DHT22;13837;48.562;12.108;2022-11-15T03:37:44;0.50;99.90
26063;DHT22;13837;48.562;12.108;2022-11-15T03:40:40;0.50;99.90
26063;DHT22;13837;48.562;12.108;2022-11-15T03:49:29;0.50;99.90
26063;DHT22;13837;48.562;12.108;2022-11-15T03:52:11;0.60;99.90
26063;DHT22;13837;48.562;12.108;2022-11-15T03:54:56;0.60;99.90
26063;DHT22;13837;48.562;12.108;2022-11-15T03:57:41;0.60;99.90
26063;DHT22;13837;48.562;12.108;2022-11-15T04:00:33;0.60;99.90
26063;DHT22;13837;48.562;12.108;2022-11-15T04:03:18;0.60;99.90
26063;DHT22;13837;48.562;12.108;2022-11-15T04:06:03;0.60;99.90
26063;DHT22;13837;48.562;12.108;2022-11-15T04:08:50;0.50;99.90
26063;DHT22;13837;48.562;12.108;2022-11-15T04:11:37;0.50;99.90
26063;DHT22;13837;48.562;12.108;2022-11-15T04:14:21;0.50;99.90
26063;DHT22;13837;48.562;12.108;2022-11-15T04:17:06;0.50;99.90
26063;DHT22;13837;48.562;12.108;2022-11-15T04:19:53;0.40;99.90
26063;DHT22;13837;48.562;12.108;2022-11-15T04:22:58;0.40;99.90
26063;DHT22;13837;48.562;12.108;2022-11-15T04:26:05;0.30;99.90
26063;DHT22;13837;48.562;12.108;2022-11-15T04:28:50;0.30;99.90
26063;DHT22;13837;48.562;12.108;2022-11-15T04:31:55;0.30;99.90
26063;DHT22;13837;48.562;12.108;2022-11-15T04:34:42;0.30;99.90
26063;DHT22;13837;48.562;12.108;2022-11-15T04:37:26;0.30;99.90
26063;DHT22;13837;48.562;12.108;2022-11-15T04:40:14;0.30;99.90
26063;DHT22;13837;48.562;12.108;2022-11-15T04:42:59;0.30;99.90
26063;DHT22;13837;48.562;12.108;2022-11-15T04:45:44;0.20;99.90
26063;DHT22;13837;48.562;12.108;2022-11-15T04:48:28;0.20;99.90
26063;DHT22;13837;48.562;12.108;2022-11-15T04:51:13;0.20;99.90
26063;DHT22;13837;48.562;12.108;2022-11-15T04:53:58;0.20;99.90
26063;DHT22;13837;48.562;12.108;2022-11-15T04:56:43;0.20;99.90
26063;DHT22;13837;48.562;12.108;2022-11-15T04:59:27;0.20;99.90
26063;DHT22;13837;48.562;12.108;2022-11-15T05:02:12;0.30;99.90
26063;DHT22;13837;48.562;12.108;2022-11-15T05:04:56;0.30;99.90
26063;DHT22;13837;48.562;12.108;2022-11-15T05:07:43;0.30;99.90
26063;DHT22;13837;48.562;12.108;2022-11-15T05:10:31;0.20;99.90
26063;DHT22;13837;48.562;12.108;2022-11-15T05:13:25;0.20;99.90
26063;DHT22;13837;48.562;12.108;2022-11-15T05:16:12;0.20;99.90
26063;DHT22;13837;48.562;12.108;2022-11-15T05:18:59;0.20;99.90
26063;DHT22;13837;48.562;12.108;2022-11-15T05:21:44;0.30;99.90
26063;DHT22;13837;48.562;12.108;2022-11-15T05:24:29;0.30;99.90
26063;DHT22;13837;48.562;12.108;2022-11-15T05:27:14;0.30;99.90
26063;DHT22;13837;48.562;12.108;2022-11-15T05:29:58;0.40;99.90
26063;DHT22;13837;48.562;12.108;2022-11-15T05:32:45;0.50;99.90
26063;DHT22;13837;48.562;12.108;2022-11-15T05:35:34;0.50;99.90
26063;DHT22;13837;48.562;12.108;2022-11-15T05:38:21;0.50;99.90
26063;DHT22;13837;48.562;12.108;2022-11-15T05:41:07;0.50;99.90
26063;DHT22;13837;48.562;12.108;2022-11-15T05:43:53;0.50;99.90
26063;DHT22;13837;48.562;12.108;2022-11-15T05:46:39;0.60;99.90
26063;DHT22;13837;48.562;12.108;2022-11-15T05:49:28;1.20;99.90
26063;DHT22;13837;48.562;12.108;2022-11-15T05:52:17;1.60;99.90
26063;DHT22;13837;48.562;12.108;2022-11-15T05:55:03;1.90;99.90
26063;DHT22;13837;48.562;12.108;2022-11-15T05:57:48;2.30;99.90
26063;DHT22;13837;48.562;12.108;2022-11-15T06:00:33;2.50;99.90
26063;DHT22;13837;48.562;12.108;2022-11-15T06:03:20;2.40;99.90
26063;DHT22;13837;48.562;12.108;2022-11-15T06:06:05;2.40;99.90
26063;DHT22;13837;48.562;12.108;2022-11-15T06:08:49;2.20;99.90
26063;DHT22;13837;48.562;12.108;2022-11-15T06:11:33;2.10;99.90
26063;DHT22;13837;48.562;12.108;2022-11-15T06:14:18;1.90;99.90
26063;DHT22;13837;48.562;12.108;2022-11-15T06:17:02;1.90;99.90
26063;DHT22;13837;48.562;12.108;2022-11-15T06:19:46;1.90;99.90
26063;DHT22;13837;48.562;12.108;2022-11-15T06:22:31;1.90;99.90
26063;DHT22;13837;48.562;12.108;2022-11-15T06:25:16;2.00;99.90
26063;DHT22;13837;48.562;12.108;2022-11-15T06:28:00;1.60;99.90
26063;DHT22;13837;48.562;12.108;2022-11-15T06:30:44;1.50;99.90
26063;DHT22;13837;48.562;12.108;2022-11-15T06:33:30;1.20;99.90
26063;DHT22;13837;48.562;12.108;2022-11-15T06:36:14;1.10;99.90
26063;DHT22;13837;48.562;12.108;2022-11-15T06:39:05;1.00;99.90
26063;DHT22;13837;48.562;12.108;2022-11-15T06:41:55;0.90;99.90
26063;DHT22;13837;48.562;12.108;2022-11-15T06:44:41;0.70;99.90
26063;DHT22;13837;48.562;12.108;2022-11-15T06:47:43;0.80;99.90
26063;DHT22;13837;48.562;12.108;2022-11-15T06:50:28;0.70;99.90
26063;DHT22;13837;48.562;12.108;2022-11-15T06:53:17;0.80;99.90
26063;DHT22;13837;48.562;12.108;2022-11-15T06:56:09;0.70;99.90
26063;DHT22;13837;48.562;12.108;2022-11-15T06:58:57;0.80;99.90
26063;DHT22;13837;48.562;12.108;2022-11-15T07:01:47;0.80;99.90
26063;DHT22;13837;48.562;12.108;2022-11-15T07:04:31;0.90;99.90
26063;DHT22;13837;48.562;12.108;2022-11-15T07:10:05;1.10;99.90
26063;DHT22;13837;48.562;12.108;2022-11-15T07:12:55;1.10;99.90
26063;DHT22;13837;48.562;12.108;2022-11-15T07:15:43;1.30;99.90
26063;DHT22;13837;48.562;12.108;2022-11-15T07:18:29;1.50;99.90
26063;DHT22;13837;48.562;12.108;2022-11-15T07:21:17;1.60;99.90
26063;DHT22;13837;48.562;12.108;2022-11-15T07:24:05;1.70;99.90
26063;DHT22;13837;48.562;12.108;2022-11-15T07:26:57;1.70;99.90
26063;DHT22;13837;48.562;12.108;2022-11-15T07:29:58;1.90;99.90
26063;DHT22;13837;48.562;12.108;2022-11-15T07:32:43;1.90;99.90
26063;DHT22;13837;48.562;12.108;2022-11-15T07:35:31;1.80;99.90
26063;DHT22;13837;48.562;12.108;2022-11-15T07:38:18;1.80;99.90
26063;DHT22;13837;48.562;12.108;2022-11-15T07:41:08;1.70;99.90
26063;DHT22;13837;48.562;12.108;2022-11-15T07:43:53;1.70;99.90
26063;DHT22;13837;48.562;12.108;2022-11-15T07:46:38;1.60;99.90
26063;DHT22;13837;48.562;12.108;2022-11-15T07:49:22;1.80;99.90
26063;DHT22;13837;48.562;12.108;2022-11-15T07:52:10;1.90;99.90
26063;DHT22;13837;48.562;12.108;2022-11-15T07:54:57;1.90;99.90
26063;DHT22;13837;48.562;12.108;2022-11-15T07:57:44;1.90;99.90
26063;DHT22;13837;48.562;12.108;2022-11-15T08:00:28;1.90;99.90
26063;DHT22;13837;48.562;12.108;2022-11-15T08:03:15;2.20;99.90
26063;DHT22;13837;48.562;12.108;2022-11-15T08:06:01;2.60;99.90
26063;DHT22;13837;48.562;12.108;2022-11-15T08:08:46;2.80;99.90
26063;DHT22;13837;48.562;12.108;2022-11-15T08:11:31;3.00;99.90
26063;DHT22;13837;48.562;12.108;2022-11-15T08:14:16;3.30;99.90
26063;DHT22;13837;48.562;12.108;2022-11-15T08:17:01;3.40;99.90
26063;DHT22;13837;48.562;12.108;2022-11-15T08:19:46;3.40;99.90
26063;DHT22;13837;48.562;12.108;2022-11-15T08:22:30;3.50;99.90
26063;DHT22;13837;48.562;12.108;2022-11-15T08:25:20;3.40;99.90
26063;DHT22;13837;48.562;12.108;2022-11-15T08:28:10;3.50;99.90
26063;DHT22;13837;48.562;12.108;2022-11-15T08:31:00;3.60;99.90
26063;DHT22;13837;48.562;12.108;2022-11-15T08:33:57;3.70;99.90
26063;DHT22;13837;48.562;12.108;2022-11-15T08:36:42;4.00;99.90
26063;DHT22;13837;48.562;12.108;2022-11-15T08:39:36;4.10;99.90
26063;DHT22;13837;48.562;12.108;2022-11-15T08:45:37;5.20;99.90
26063;DHT22;13837;48.562;12.108;2022-11-15T08:48:23;6.80;99.90
26063;DHT22;13837;48.562;12.108;2022-11-15T08:51:22;8.30;99.90
26063;DHT22;13837;48.562;12.108;2022-11-15T08:54:27;9.70;99.90
26063;DHT22;13837;48.562;12.108;2022-11-15T09:00:22;11.90;99.90
26063;DHT22;13837;48.562;12.108;2022-11-15T09:03:59;12.20;99.90
26063;DHT22;13837;48.562;12.108;2022-11-15T09:06:47;12.60;99.90
26063;DHT22;13837;48.562;12.108;2022-11-15T09:09:32;13.20;99.90
26063;DHT22;13837;48.562;12.108;2022-11-15T09:12:29;12.90;99.90
26063;DHT22;13837;48.562;12.108;2022-11-15T09:15:35;12.70;99.90
26063;DHT22;13837;48.562;12.108;2022-11-15T09:22:03;13.50;99.90
26063;DHT22;13837;48.562;12.108;2022-11-15T09:24:51;14.10;99.90
26063;DHT22;13837;48.562;12.108;2022-11-15T09:28:00;14.60;99.90
26063;DHT22;13837;48.562;12.108;2022-11-15T09:31:36;14.70;99.90
26063;DHT22;13837;48.562;12.108;2022-11-15T09:34:34;15.10;99.90
26063;DHT22;13837;48.562;12.108;2022-11-15T09:37:23;15.50;99.90
26063;DHT22;13837;48.562;12.108;2022-11-15T09:44:42;16.30;99.90
26063;DHT22;13837;48.562;12.108;2022-11-15T09:51:40;16.70;99.90
26063;DHT22;13837;48.562;12.108;2022-11-15T09:54:36;17.30;99.90
26063;DHT22;13837;48.562;12.108;2022-11-15T10:06:05;18.10;99.90
26063;DHT22;13837;48.562;12.108;2022-11-15T10:41:47;20.70;99.90
26063;DHT22;13837;48.562;12.108;2022-11-15T11:26:15;21.50;99.90
26063;DHT22;13837;48.562;12.108;2022-11-15T11:29:13;21.60;99.90
26063;DHT22;13837;48.562;12.108;2022-11-15T11:54:14;21.60;99.90
26063;DHT22;13837;48.562;12.108;2022-11-15T11:56:53;21.70;99.90
26063;DHT22;13837;48.562;12.108;2022-11-15T12:02:40;21.20;99.90
26063;DHT22;13837;48.562;12.108;2022-11-15T12:08:32;20.40;99.90
26063;DHT22;13837;48.562;12.108;2022-11-15T12:13:48;20.10;99.90
26063;DHT22;13837;48.562;12.108;2022-11-15T12:16:20;19.90;99.90
26063;DHT22;13837;48.562;12.108;2022-11-15T12:18:51;19.90;99.90
26063;DHT22;13837;48.562;12.108;2022-11-15T12:24:18;19.30;99.90
26063;DHT22;13837;48.562;12.108;2022-11-15T12:27:01;19.10;99.90
26063;DHT22;13837;48.562;12.108;2022-11-15T12:30:07;18.90;99.90
26063;DHT22;13837;48.562;12.108;2022-11-15T12:42:44;18.20;99.90
26063;DHT22;13837;48.562;12.108;2022-11-15T13:02:44;17.00;99.90
26063;DHT22;13837;48.562;12.108;2022-11-15T13:06:01;16.90;99.90
26063;DHT22;13837;48.562;12.108;2022-11-15T13:37:42;15.10;99.90
26063;DHT22;13837;48.562;12.108;2022-11-15T13:40:27;15.00;99.90
26063;DHT22;13837;48.562;12.108;2022-11-15T13:42:57;15.00;99.90
26063;DHT22;13837;48.562;12.108;2022-11-15T13:45:25;15.00;99.90
26063;DHT22;13837;48.562;12.108;2022-11-15T13:47:57;15.00;99.90
26063;DHT22;13837;48.562;12.108;2022-11-15T13:50:31;15.00;99.90
26063;DHT22;13837;48.562;12.108;2022-11-15T13:53:03;14.90;99.90
26063;DHT22;13837;48.562;12.108;2022-11-15T13:55:33;15.00;99.90
26063;DHT22;13837;48.562;12.108;2022-11-15T13:58:06;15.00;99.90
26063;DHT22;13837;48.562;12.108;2022-11-15T14:00:43;14.90;99.90
26063;DHT22;13837;48.562;12.108;2022-11-15T14:03:27;14.90;99.90
26063;DHT22;13837;48.562;12.108;2022-11-15T14:06:13;14.80;99.90
26063;DHT22;13837;48.562;12.108;2022-11-15T14:09:15;14.80;99.90
26063;DHT22;13837;48.562;12.108;2022-11-15T14:11:50;14.60;99.90
26063;DHT22;13837;48.562;12.108;2022-11-15T14:37:04;13.60;99.90
26063;DHT22;13837;48.562;12.108;2022-11-15T14:58:52;12.50;99.90
26063;DHT22;13837;48.562;12.108;2022-11-15T15:01:26;12.30;99.90
26063;DHT22;13837;48.562;12.108;2022-11-15T15:10:45;11.90;99.90
26063;DHT22;13837;48.562;12.108;2022-11-15T15:13:38;11.70;99.90
26063;DHT22;13837;48.562;12.108;2022-11-15T15:16:09;11.50;99.90
26063;DHT22;13837;48.562;12.108;2022-11-15T15:18:51;11.30;99.90
26063;DHT22;13837;48.562;12.108;2022-11-15T15:21:28;11.10;99.90
26063;DHT22;13837;48.562;12.108;2022-11-15T15:28:11;10.80;99.90
26063;DHT22;13837;48.562;12.108;2022-11-15T15:31:59;10.50;99.90
26063;DHT22;13837;48.562;12.108;2022-11-15T15:43:30;10.10;99.90
26063;DHT22;13837;48.562;12.108;2022-11-15T15:55:22;9.40;99.90
26063;DHT22;13837;48.562;12.108;2022-11-15T16:01:31;9.20;99.90
26063;DHT22;13837;48.562;12.108;2022-11-15T16:05:11;9.00;99.90
26063;DHT22;13837;48.562;12.108;2022-11-15T16:10:36;8.90;99.90
26063;DHT22;13837;48.562;12.108;2022-11-15T16:13:15;9.00;99.90
26063;DHT22;13837;48.562;12.108;2022-11-15T16:15:53;8.90;99.90
26063;DHT22;13837;48.562;12.108;2022-11-15T16:18:22;8.80;99.90
26063;DHT22;13837;48.562;12.108;2022-11-15T16:20:49;8.70;99.90
26063;DHT22;13837;48.562;12.108;2022-11-15T16:23:18;8.60;99.90
26063;DHT22;13837;48.562;12.108;2022-11-15T16:25:55;8.60;99.90
26063;DHT22;13837;48.562;12.108;2022-11-15T16:28:26;8.50;99.90
26063;DHT22;13837;48.562;12.108;2022-11-15T16:33:27;8.20;99.90
26063;DHT22;13837;48.562;12.108;2022-11-15T16:35:53;8.20;99.90
26063;DHT22;13837;48.562;12.108;2022-11-15T16:38:19;8.10;99.90
26063;DHT22;13837;48.562;12.108;2022-11-15T16:40:44;8.00;99.90
26063;DHT22;13837;48.562;12.108;2022-11-15T16:43:12;7.90;99.90
26063;DHT22;13837;48.562;12.108;2022-11-15T16:45:38;7.90;99.90
26063;DHT22;13837;48.562;12.108;2022-11-15T16:48:04;7.80;99.90
26063;DHT22;13837;48.562;12.108;2022-11-15T16:50:33;7.50;99.90
26063;DHT22;13837;48.562;12.108;2022-11-15T16:53:04;7.40;99.90
26063;DHT22;13837;48.562;12.108;2022-11-15T16:55:30;7.40;99.90
26063;DHT22;13837;48.562;12.108;2022-11-15T16:57:56;7.40;99.90
26063;DHT22;13837;48.562;12.108;2022-11-15T17:00:26;7.40;99.90
26063;DHT22;13837;48.562;12.108;2022-11-15T17:02:53;7.20;99.90
26063;DHT22;13837;48.562;12.108;2022-11-15T17:05:22;7.20;99.90
26063;DHT22;13837;48.562;12.108;2022-11-15T17:07:49;7.20;99.90
26063;DHT22;13837;48.562;12.108;2022-11-15T17:10:21;7.10;99.90
26063;DHT22;13837;48.562;12.108;2022-11-15T17:12:48;7.10;99.90
26063;DHT22;13837;48.562;12.108;2022-11-15T17:15:14;7.10;99.90
26063;DHT22;13837;48.562;12.108;2022-11-15T17:17:41;7.00;99.90
26063;DHT22;13837;48.562;12.108;2022-11-15T17:20:16;7.00;99.90
26063;DHT22;13837;48.562;12.108;2022-11-15T17:22:42;7.00;99.90
26063;DHT22;13837;48.562;12.108;2022-11-15T17:25:08;7.00;99.90
26063;DHT22;13837;48.562;12.108;2022-11-15T17:27:34;6.90;99.90
26063;DHT22;13837;48.562;12.108;2022-11-15T17:30:00;6.70;99.90
26063;DHT22;13837;48.562;12.108;2022-11-15T17:32:26;6.70;99.90
26063;DHT22;13837;48.562;12.108;2022-11-15T17:34:52;6.50;99.90
26063;DHT22;13837;48.562;12.108;2022-11-15T17:37:17;6.50;99.90
26063;DHT22;13837;48.562;12.108;2022-11-15T17:39:43;6.50;99.90
26063;DHT22;13837;48.562;12.108;2022-11-15T17:42:09;6.40;99.90
26063;DHT22;13837;48.562;12.108;2022-11-15T17:44:35;6.30;99.90
26063;DHT22;13837;48.562;12.108;2022-11-15T17:47:00;6.10;99.90
26063;DHT22;13837;48.562;12.108;2022-11-15T17:49:26;6.00;99.90
26063;DHT22;13837;48.562;12.108;2022-11-15T17:51:52;5.90;99.90
26063;DHT22;13837;48.562;12.108;2022-11-15T17:54:18;5.80;99.90
26063;DHT22;13837;48.562;12.108;2022-11-15T17:56:44;5.80;99.90
26063;DHT22;13837;48.562;12.108;2022-11-15T17:59:09;5.70;99.90
26063;DHT22;13837;48.562;12.108;2022-11-15T18:01:36;5.60;99.90
26063;DHT22;13837;48.562;12.108;2022-11-15T18:04:04;5.60;99.90
26063;DHT22;13837;48.562;12.108;2022-11-15T18:06:32;5.50;99.90
26063;DHT22;13837;48.562;12.108;2022-11-15T18:08:58;5.50;99.90
26063;DHT22;13837;48.562;12.108;2022-11-15T18:11:29;5.50;99.90
26063;DHT22;13837;48.562;12.108;2022-11-15T18:14:00;5.50;99.90
26063;DHT22;13837;48.562;12.108;2022-11-15T18:16:28;5.60;99.90
26063;DHT22;13837;48.562;12.108;2022-11-15T18:18:56;5.60;99.90
26063;DHT22;13837;48.562;12.108;2022-11-15T18:21:24;5.50;99.90
26063;DHT22;13837;48.562;12.108;2022-11-15T18:23:56;5.50;99.90
26063;DHT22;13837;48.562;12.108;2022-11-15T18:26:23;5.40;99.90
26063;DHT22;13837;48.562;12.108;2022-11-15T18:28:53;5.40;99.90
26063;DHT22;13837;48.562;12.108;2022-11-15T18:31:21;5.50;99.90
26063;DHT22;13837;48.562;12.108;2022-11-15T18:33:47;5.40;99.90
26063;DHT22;13837;48.562;12.108;2022-11-15T18:36:17;5.40;99.90
26063;DHT22;13837;48.562;12.108;2022-11-15T18:38:43;5.40;99.90
26063;DHT22;13837;48.562;12.108;2022-11-15T18:41:17;5.40;99.90
26063;DHT22;13837;48.562;12.108;2022-11-15T18:43:45;5.40;99.90
26063;DHT22;13837;48.562;12.108;2022-11-15T18:46:17;5.40;99.90
26063;DHT22;13837;48.562;12.108;2022-11-15T18:48:44;5.40;99.90
26063;DHT22;13837;48.562;12.108;2022-11-15T18:51:14;5.40;99.90
26063;DHT22;13837;48.562;12.108;2022-11-15T18:53:41;5.30;99.90
26063;DHT22;13837;48.562;12.108;2022-11-15T18:56:11;5.20;99.90
26063;DHT22;13837;48.562;12.108;2022-11-15T18:58:48;5.20;99.90
26063;DHT22;13837;48.562;12.108;2022-11-15T19:01:19;5.30;99.90
26063;DHT22;13837;48.562;12.108;2022-11-15T19:03:47;5.30;99.90
26063;DHT22;13837;48.562;12.108;2022-11-15T19:06:16;5.30;99.90
26063;DHT22;13837;48.562;12.108;2022-11-15T19:08:43;5.30;99.90
26063;DHT22;13837;48.562;12.108;2022-11-15T19:13:42;5.30;99.90
26063;DHT22;13837;48.562;12.108;2022-11-15T19:16:10;5.30;99.90
26063;DHT22;13837;48.562;12.108;2022-11-15T19:18:37;5.20;99.90
26063;DHT22;13837;48.562;12.108;2022-11-15T19:21:05;5.20;99.90
26063;DHT22;13837;48.562;12.108;2022-11-15T19:23:36;5.30;99.90
26063;DHT22;13837;48.562;12.108;2022-11-15T19:26:04;5.20;99.90
26063;DHT22;13837;48.562;12.108;2022-11-15T19:28:30;5.30;99.90
26063;DHT22;13837;48.562;12.108;2022-11-15T19:31:10;5.20;99.90
26063;DHT22;13837;48.562;12.108;2022-11-15T19:33:37;5.20;99.90
26063;DHT22;13837;48.562;12.108;2022-11-15T19:36:11;5.20;99.90
26063;DHT22;13837;48.562;12.108;2022-11-15T19:38:38;5.20;99.90
26063;DHT22;13837;48.562;12.108;2022-11-15T19:41:06;5.20;99.90
26063;DHT22;13837;48.562;12.108;2022-11-15T19:43:32;5.10;99.90
26063;DHT22;13837;48.562;12.108;2022-11-15T19:46:01;5.20;99.90
26063;DHT22;13837;48.562;12.108;2022-11-15T19:48:29;5.10;99.90
26063;DHT22;13837;48.562;12.108;2022-11-15T19:51:02;5.10;99.90
26063;DHT22;13837;48.562;12.108;2022-11-15T19:53:29;5.10;99.90
26063;DHT22;13837;48.562;12.108;2022-11-15T19:55:56;5.10;99.90
26063;DHT22;13837;48.562;12.108;2022-11-15T19:58:23;5.10;99.90
26063;DHT22;13837;48.562;12.108;2022-11-15T20:00:49;5.00;99.90
26063;DHT22;13837;48.562;12.108;2022-11-15T20:03:15;5.00;99.90
26063;DHT22;13837;48.562;12.108;2022-11-15T20:05:41;5.00;99.90
26063;DHT22;13837;48.562;12.108;2022-11-15T20:08:07;5.10;99.90
26063;DHT22;13837;48.562;12.108;2022-11-15T20:10:33;5.10;99.90
26063;DHT22;13837;48.562;12.108;2022-11-15T20:12:59;5.30;99.90
26063;DHT22;13837;48.562;12.108;2022-11-15T20:15:26;5.30;99.90
26063;DHT22;13837;48.562;12.108;2022-11-15T20:17:52;5.40;99.90
26063;DHT22;13837;48.562;12.108;2022-11-15T20:20:18;5.50;99.90
26063;DHT22;13837;48.562;12.108;2022-11-15T20:22:44;5.50;99.90
26063;DHT22;13837;48.562;12.108;2022-11-15T20:25:10;5.60;99.90
26063;DHT22;13837;48.562;12.108;2022-11-15T20:27:35;5.60;99.90
26063;DHT22;13837;48.562;12.108;2022-11-15T20:30:01;5.70;99.90
26063;DHT22;13837;48.562;12.108;2022-11-15T20:32:27;5.80;99.90
26063;DHT22;13837;48.562;12.108;2022-11-15T20:34:54;5.80;99.90
26063;DHT22;13837;48.562;12.108;2022-11-15T20:37:20;5.90;99.90
26063;DHT22;13837;48.562;12.108;2022-11-15T20:39:46;5.90;99.90
26063;DHT22;13837;48.562;12.108;2022-11-15T20:42:12;5.90;99.90
26063;DHT22;13837;48.562;12.108;2022-11-15T20:44:38;5.90;99.90
26063;DHT22;13837;48.562;12.108;2022-11-15T20:47:04;5.90;99.90
26063;DHT22;13837;48.562;12.108;2022-11-15T20:49:30;5.80;99.90
26063;DHT22;13837;48.562;12.108;2022-11-15T20:51:56;5.70;99.90
26063;DHT22;13837;48.562;12.108;2022-11-15T20:54:21;5.70;99.90
26063;DHT22;13837;48.562;12.108;2022-11-15T20:56:47;5.70;99.90
26063;DHT22;13837;48.562;12.108;2022-11-15T20:59:13;5.70;99.90
26063;DHT22;13837;48.562;12.108;2022-11-15T21:01:39;5.70;99.90
26063;DHT22;13837;48.562;12.108;2022-11-15T21:04:04;5.60;99.90
26063;DHT22;13837;48.562;12.108;2022-11-15T21:06:30;5.60;99.90
26063;DHT22;13837;48.562;12.108;2022-11-15T21:08:56;5.50;99.90
26063;DHT22;13837;48.562;12.108;2022-11-15T21:11:40;5.50;99.90
26063;DHT22;13837;48.562;12.108;2022-11-15T21:14:24;5.40;99.90
26063;DHT22;13837;48.562;12.108;2022-11-15T21:16:50;5.40;99.90
26063;DHT22;13837;48.562;12.108;2022-11-15T21:19:16;5.30;99.90
26063;DHT22;13837;48.562;12.108;2022-11-15T21:21:41;5.20;99.90
26063;DHT22;13837;48.562;12.108;2022-11-15T21:24:08;5.20;99.90
26063;DHT22;13837;48.562;12.108;2022-11-15T21:26:35;5.20;99.90
26063;DHT22;13837;48.562;12.108;2022-11-15T21:29:02;5.20;99.90
26063;DHT22;13837;48.562;12.108;2022-11-15T21:31:28;5.10;99.90
26063;DHT22;13837;48.562;12.108;2022-11-15T21:33:54;5.10;99.90
26063;DHT22;13837;48.562;12.108;2022-11-15T21:36:20;5.00;99.90
26063;DHT22;13837;48.562;12.108;2022-11-15T21:38:46;5.00;99.90
26063;DHT22;13837;48.562;12.108;2022-11-15T21:41:12;5.00;99.90
26063;DHT22;13837;48.562;12.108;2022-11-15T21:43:38;4.90;99.90
26063;DHT22;13837;48.562;12.108;2022-11-15T21:46:05;4.90;99.90
26063;DHT22;13837;48.562;12.108;2022-11-15T21:48:33;4.90;99.90
26063;DHT22;13837;48.562;12.108;2022-11-15T21:51:05;4.90;99.90
26063;DHT22;13837;48.562;12.108;2022-11-15T21:53:31;4.90;99.90